Time,TemperatureF,DewpointF,PressureIn,WindDirection,WindDirectionDegrees,WindSpeedMPH,WindSpeedGustMPH,Humidity,HourlyPrecipIn,Conditions,Clouds,dailyrainin,SoftwareType,DateUTC
2013-08-06 00:01:00,79.5,72.0,29.86,NE,38,0.0,0.0,78,0.00,,,0.00,VWS V13.01,2013-08-06 05:01:00,
2013-08-06 00:06:00,79.3,71.9,29.86,NE,38,0.0,0.0,78,0.00,,,0.00,VWS V13.01,2013-08-06 05:06:00,
2013-08-06 00:11:00,79.3,71.9,29.86,NE,38,0.0,0.0,78,0.00,,,0.00,VWS V13.01,2013-08-06 05:11:00,
2013-08-06 00:16:00,79.1,72.1,29.86,NE,38,0.0,0.0,79,0.00,,,0.00,VWS V13.01,2013-08-06 05:16:00,
2013-08-06 00:21:00,79.0,72.3,29.86,NE,39,0.0,0.0,80,0.00,,,0.00,VWS V13.01,2013-08-06 05:21:00,
2013-08-06 00:26:00,78.6,71.9,29.86,ENE,67,0.0,0.0,80,0.00,,,0.00,VWS V13.01,2013-08-06 05:26:00,
2013-08-06 00:31:00,78.2,72.3,29.86,ENE,60,0.0,0.0,82,0.00,,,0.00,VWS V13.01,2013-08-06 05:31:00,
2013-08-06 00:36:00,78.2,73.0,29.86,NE,38,0.0,2.2,84,0.00,,,0.00,VWS V13.01,2013-08-06 05:36:00,
2013-08-06 00:41:00,78.1,73.2,29.86,NE,35,3.1,3.6,85,0.00,,,0.00,VWS V13.01,2013-08-06 05:41:00,
2013-08-06 00:46:00,77.9,73.0,29.86,ENE,61,2.2,2.2,85,0.00,,,0.00,VWS V13.01,2013-08-06 05:46:00,
2013-08-06 00:51:00,77.9,73.0,29.86,ENE,57,2.7,3.1,85,0.00,,,0.00,VWS V13.01,2013-08-06 05:51:00,
2013-08-06 00:56:00,78.1,72.8,29.86,ENE,73,2.7,2.7,84,0.00,,,0.00,VWS V13.01,2013-08-06 05:56:00,
2013-08-06 01:01:00,78.1,72.5,29.86,ENE,67,2.7,2.7,83,0.00,,,0.00,VWS V13.01,2013-08-06 06:01:00,
2013-08-06 02:32:00,77.3,72.1,29.83,NNE,26,0.0,0.0,84,0.00,,,0.00,VWS V13.01,2013-08-06 07:32:00,
2013-08-06 02:37:00,77.2,72.3,29.83,NNE,26,0.0,0.0,85,0.00,,,0.00,VWS V13.01,2013-08-06 07:37:00,
2013-08-06 02:42:00,77.0,72.5,29.83,NNE,26,0.0,0.0,86,0.00,,,0.00,VWS V13.01,2013-08-06 07:42:00,
2013-08-06 02:47:00,76.8,72.3,29.80,NNE,26,0.0,0.0,86,0.00,,,0.00,VWS V13.01,2013-08-06 07:47:00,
2013-08-06 02:52:00,76.8,72.3,29.80,NNE,26,0.0,0.0,86,0.00,,,0.00,VWS V13.01,2013-08-06 07:52:00,
2013-08-06 02:57:00,76.8,72.3,29.80,NNE,26,0.0,0.0,86,0.00,,,0.00,VWS V13.01,2013-08-06 07:57:00,
2013-08-06 03:02:00,76.6,72.5,29.80,NNE,26,0.0,0.0,87,0.00,,,0.00,VWS V13.01,2013-08-06 08:02:00,
2013-08-06 03:07:00,76.6,72.8,29.80,NNE,19,0.0,0.0,88,0.00,,,0.00,VWS V13.01,2013-08-06 08:07:00,
2013-08-06 03:12:00,76.4,73.0,29.80,NNE,19,0.0,2.7,89,0.00,,,0.00,VWS V13.01,2013-08-06 08:12:00,
2013-08-06 03:17:00,76.3,72.8,29.80,NNE,19,0.0,0.0,89,0.00,,,0.00,VWS V13.01,2013-08-06 08:17:00,
2013-08-06 03:22:00,76.3,73.1,29.80,North,354,0.0,0.0,90,0.00,,,0.00,VWS V13.01,2013-08-06 08:22:00,
2013-08-06 03:27:00,76.1,73.3,29.80,North,354,0.0,0.0,91,0.00,,,0.00,VWS V13.01,2013-08-06 08:27:00,
2013-08-06 03:32:00,76.1,73.3,29.80,NNW,342,0.0,0.0,91,0.00,,,0.00,VWS V13.01,2013-08-06 08:32:00,
2013-08-06 03:37:00,75.9,73.4,29.80,North,352,0.0,0.0,92,0.00,,,0.00,VWS V13.01,2013-08-06 08:37:00,
2013-08-06 03:42:00,75.9,73.4,29.80,North,352,0.0,0.0,92,0.00,,,0.00,VWS V13.01,2013-08-06 08:42:00,
2013-08-06 03:47:00,75.9,73.4,29.83,North,352,0.0,0.0,92,0.00,,,0.00,VWS V13.01,2013-08-06 08:47:00,
2013-08-06 03:52:00,75.9,73.4,29.83,NNW,336,0.0,0.0,92,0.00,,,0.00,VWS V13.01,2013-08-06 08:52:00,
2013-08-06 03:57:00,75.9,73.1,29.83,NNW,336,0.0,0.0,91,0.00,,,0.00,VWS V13.01,2013-08-06 08:57:00,
2013-08-06 04:02:00,75.9,73.1,29.80,NNW,336,0.0,0.0,91,0.00,,,0.00,VWS V13.01,2013-08-06 09:02:00,
2013-08-06 04:07:00,75.7,72.6,29.80,SSW,199,3.6,3.6,90,0.00,,,0.00,VWS V13.01,2013-08-06 09:07:00,
2013-08-06 04:12:00,75.5,73.4,29.80,SSW,203,0.0,0.0,93,0.00,,,0.00,VWS V13.01,2013-08-06 09:12:00,
2013-08-06 04:17:00,75.5,73.4,29.80,SSW,203,0.0,0.0,93,0.00,,,0.00,VWS V13.01,2013-08-06 09:17:00,
2013-08-06 04:22:00,75.4,73.2,29.80,SSW,203,0.0,0.0,93,0.00,,,0.00,VWS V13.01,2013-08-06 09:22:00,
2013-08-06 04:27:00,75.4,73.8,29.80,North,352,2.2,2.7,95,0.00,,,0.00,VWS V13.01,2013-08-06 09:27:00,
2013-08-06 04:32:00,75.2,73.7,29.80,ESE,123,0.0,0.0,95,0.00,,,0.00,VWS V13.01,2013-08-06 09:32:00,
2013-08-06 04:37:00,75.2,74.0,29.80,NNE,28,0.0,0.0,96,0.00,,,0.00,VWS V13.01,2013-08-06 09:37:00,
2013-08-06 04:42:00,75.2,74.0,29.80,NNE,29,0.0,0.0,96,0.00,,,0.00,VWS V13.01,2013-08-06 09:42:00,
2013-08-06 04:47:00,75.4,74.1,29.83,NNE,19,2.7,2.7,96,0.00,,,0.00,VWS V13.01,2013-08-06 09:47:00,
2013-08-06 04:52:00,75.4,73.5,29.83,NE,46,3.6,3.6,94,0.00,,,0.00,VWS V13.01,2013-08-06 09:52:00,
2013-08-06 04:57:00,75.4,73.8,29.83,NE,40,3.6,3.6,95,0.00,,,0.00,VWS V13.01,2013-08-06 09:57:00,
2013-08-06 05:02:00,75.4,73.8,29.83,NE,44,2.2,2.7,95,0.00,,,0.00,VWS V13.01,2013-08-06 10:02:00,
2013-08-06 05:07:00,75.4,73.8,29.83,NNE,33,0.0,0.0,95,0.00,,,0.00,VWS V13.01,2013-08-06 10:07:00,
2013-08-06 05:12:00,75.4,73.5,29.83,NNE,33,0.0,0.0,94,0.00,,,0.00,VWS V13.01,2013-08-06 10:12:00,
2013-08-06 05:17:00,75.4,73.5,29.83,NE,37,0.0,0.0,94,0.00,,,0.00,VWS V13.01,2013-08-06 10:17:00,
2013-08-06 05:22:00,75.5,73.4,29.83,NE,37,0.0,0.0,93,0.00,,,0.00,VWS V13.01,2013-08-06 10:22:00,
2013-08-06 05:27:00,75.4,73.2,29.83,NE,37,0.0,0.0,93,0.00,,,0.00,VWS V13.01,2013-08-06 10:27:00,
2013-08-06 05:32:00,75.4,73.2,29.83,NE,37,0.0,0.0,93,0.00,,,0.00,VWS V13.01,2013-08-06 10:32:00,
2013-08-06 05:37:00,75.4,73.5,29.83,NNE,20,0.0,0.0,94,0.00,,,0.00,VWS V13.01,2013-08-06 10:37:00,
2013-08-06 05:42:00,75.2,73.3,29.83,NNE,20,0.0,0.0,94,0.00,,,0.00,VWS V13.01,2013-08-06 10:42:00,
2013-08-06 05:47:00,75.2,73.7,29.83,NNE,18,0.0,0.0,95,0.00,,,0.00,VWS V13.01,2013-08-06 10:47:00,
2013-08-06 05:52:00,75.2,73.3,29.83,NNE,18,0.0,0.0,94,0.00,,,0.00,VWS V13.01,2013-08-06 10:52:00,
2013-08-06 05:57:00,75.0,73.2,29.83,NNE,18,0.0,0.0,94,0.00,,,0.00,VWS V13.01,2013-08-06 10:57:00,
2013-08-06 06:02:00,74.8,73.3,29.83,NNE,18,0.0,0.0,95,0.00,,,0.00,VWS V13.01,2013-08-06 11:02:00,
2013-08-06 06:07:00,74.6,73.1,29.83,NNE,18,0.0,0.0,95,0.00,,,0.00,VWS V13.01,2013-08-06 11:07:00,
2013-08-06 06:12:00,74.6,73.4,29.83,NNE,18,0.0,0.0,96,0.00,,,0.00,VWS V13.01,2013-08-06 11:12:00,
2013-08-06 06:17:00,74.6,73.7,29.83,NNE,18,0.0,0.0,97,0.00,,,0.00,VWS V13.01,2013-08-06 11:17:00,
2013-08-06 06:22:00,74.5,73.6,29.83,NNE,18,0.0,0.0,97,0.00,,,0.00,VWS V13.01,2013-08-06 11:22:00,
2013-08-06 06:27:00,74.5,73.9,29.83,NNE,18,0.0,0.0,98,0.00,,,0.00,VWS V13.01,2013-08-06 11:27:00,
2013-08-06 06:32:00,74.5,74.2,29.83,NNE,18,0.0,0.0,99,0.00,,,0.00,VWS V13.01,2013-08-06 11:32:00,
2013-08-06 06:37:00,74.3,74.0,29.83,NNE,18,0.0,0.0,99,0.00,,,0.00,VWS V13.01,2013-08-06 11:37:00,
2013-08-06 06:42:00,74.3,74.0,29.83,NNE,18,0.0,0.0,99,0.00,,,0.00,VWS V13.01,2013-08-06 11:42:00,
2013-08-06 06:47:00,74.3,74.0,29.83,NE,43,0.0,0.0,99,0.00,,,0.00,VWS V13.01,2013-08-06 11:47:00,
2013-08-06 06:52:00,74.1,73.8,29.83,NE,43,0.0,0.0,99,0.00,,,0.00,VWS V13.01,2013-08-06 11:52:00,
2013-08-06 06:57:00,74.1,73.8,29.83,NE,43,0.0,0.0,99,0.00,,,0.00,VWS V13.01,2013-08-06 11:57:00,
2013-08-06 07:01:00,74.1,74.1,29.83,NE,43,0.0,0.0,100,0.00,,,0.00,VWS V13.01,2013-08-06 12:01:00,
2013-08-06 07:06:00,74.3,74.3,29.83,NE,43,0.0,0.0,100,0.00,,,0.00,VWS V13.01,2013-08-06 12:06:00,
2013-08-06 07:11:00,74.3,74.3,29.83,NE,43,0.0,0.0,100,0.00,,,0.00,VWS V13.01,2013-08-06 12:11:00,
2013-08-06 07:16:00,74.3,74.3,29.86,NE,43,0.0,0.0,100,0.00,,,0.00,VWS V13.01,2013-08-06 12:16:00,
2013-08-06 07:21:00,74.5,74.5,29.86,NE,43,0.0,0.0,100,0.00,,,0.00,VWS V13.01,2013-08-06 12:21:00,
2013-08-06 07:26:00,74.6,74.7,29.86,NE,43,0.0,0.0,100,0.00,,,0.00,VWS V13.01,2013-08-06 12:26:00,
2013-08-06 07:31:00,74.8,74.8,29.86,NE,43,0.0,0.0,100,0.00,,,0.00,VWS V13.01,2013-08-06 12:31:00,
2013-08-06 07:36:00,75.0,75.0,29.86,NE,43,0.0,0.0,100,0.00,,,0.00,VWS V13.01,2013-08-06 12:36:00,
2013-08-06 07:41:00,75.2,75.2,29.86,NE,43,0.0,0.0,100,0.00,,,0.00,VWS V13.01,2013-08-06 12:41:00,
2013-08-06 07:46:00,75.4,75.4,29.86,NE,43,0.0,0.0,100,0.00,,,0.00,VWS V13.01,2013-08-06 12:46:00,
2013-08-06 07:51:00,75.7,75.7,29.86,NE,43,0.0,0.0,100,0.00,,,0.00,VWS V13.01,2013-08-06 12:51:00,
2013-08-06 07:56:00,75.9,75.0,29.86,North,10,0.0,0.0,97,0.00,,,0.00,VWS V13.01,2013-08-06 12:56:00,
2013-08-06 08:01:00,76.3,73.8,29.86,NE,48,0.0,0.0,92,0.00,,,0.00,VWS V13.01,2013-08-06 13:01:00,
2013-08-06 08:06:00,76.6,73.8,29.86,NE,48,0.0,0.0,91,0.00,,,0.00,VWS V13.01,2013-08-06 13:06:00,
2013-08-06 08:11:00,77.0,72.8,29.86,North,10,2.7,3.1,87,0.00,,,0.00,VWS V13.01,2013-08-06 13:11:00,
2013-08-06 08:16:00,77.5,73.0,29.86,NE,53,0.0,0.0,86,0.00,,,0.00,VWS V13.01,2013-08-06 13:16:00,
2013-08-06 08:21:00,77.9,73.0,29.86,NE,34,0.0,0.0,85,0.00,,,0.00,VWS V13.01,2013-08-06 13:21:00,
2013-08-06 08:26:00,78.2,72.7,29.86,NE,36,0.0,0.0,83,0.00,,,0.00,VWS V13.01,2013-08-06 13:26:00,
2013-08-06 08:31:00,79.0,73.0,29.86,NE,35,0.0,2.2,82,0.00,,,0.00,VWS V13.01,2013-08-06 13:31:00,
2013-08-06 08:36:00,79.5,72.0,29.86,ENE,62,0.0,0.0,78,0.00,,,0.00,VWS V13.01,2013-08-06 13:36:00,
2013-08-06 08:41:00,80.0,71.4,29.86,NE,51,2.7,2.7,75,0.00,,,0.00,VWS V13.01,2013-08-06 13:41:00,
2013-08-06 08:46:00,80.2,70.8,29.86,East,95,0.0,2.2,73,0.00,,,0.00,VWS V13.01,2013-08-06 13:46:00,
2013-08-06 08:51:00,80.4,70.6,29.86,ESE,114,3.1,3.1,72,0.00,,,0.00,VWS V13.01,2013-08-06 13:51:00,
2013-08-06 08:56:00,79.9,70.0,29.86,ESE,119,2.7,2.7,72,0.00,,,0.00,VWS V13.01,2013-08-06 13:56:00,
2013-08-06 09:01:00,79.7,70.3,29.89,ESE,104,0.0,2.7,73,0.00,,,0.00,VWS V13.01,2013-08-06 14:01:00,
2013-08-06 09:06:00,79.7,70.7,29.89,East,90,2.7,2.7,74,0.00,,,0.00,VWS V13.01,2013-08-06 14:06:00,
2013-08-06 09:11:00,79.9,70.4,29.89,East,94,2.7,4.0,73,0.00,,,0.00,VWS V13.01,2013-08-06 14:11:00,
2013-08-06 09:16:00,80.2,71.2,29.86,NE,44,0.0,0.0,74,0.00,,,0.00,VWS V13.01,2013-08-06 14:16:00,
2013-08-06 09:21:00,80.6,70.3,29.86,NNE,22,2.2,2.7,71,0.00,,,0.00,VWS V13.01,2013-08-06 14:21:00,
2013-08-06 09:26:00,81.1,70.0,29.86,ENE,63,2.7,3.6,69,0.00,,,0.00,VWS V13.01,2013-08-06 14:26:00,
2013-08-06 09:31:00,81.5,70.3,29.89,East,95,2.2,2.7,69,0.00,,,0.00,VWS V13.01,2013-08-06 14:31:00,
2013-08-06 09:36:00,82.0,70.4,29.89,ENE,72,4.0,5.4,68,0.00,,,0.00,VWS V13.01,2013-08-06 14:36:00,
2013-08-06 09:41:00,82.6,70.1,29.89,NE,39,4.0,4.0,66,0.00,,,0.00,VWS V13.01,2013-08-06 14:41:00,
2013-08-06 09:46:00,83.5,69.6,29.86,East,79,4.0,4.0,63,0.00,,,0.00,VWS V13.01,2013-08-06 14:46:00,
2013-08-06 09:51:00,83.5,69.6,29.86,ENE,68,2.7,3.1,63,0.00,,,0.00,VWS V13.01,2013-08-06 14:51:00,
2013-08-06 09:56:00,83.1,69.2,29.86,ESE,111,3.1,3.1,63,0.00,,,0.00,VWS V13.01,2013-08-06 14:56:00,
2013-08-06 10:01:00,82.9,69.9,29.89,SE,124,3.6,4.0,65,0.00,,,0.00,VWS V13.01,2013-08-06 15:01:00,
2013-08-06 10:06:00,82.4,69.4,29.89,ENE,60,2.2,4.9,65,0.00,,,0.00,VWS V13.01,2013-08-06 15:06:00,
2013-08-06 10:11:00,82.4,69.9,29.89,ENE,78,3.6,3.6,66,0.00,,,0.00,VWS V13.01,2013-08-06 15:11:00,
2013-08-06 10:16:00,82.4,70.3,29.89,NE,55,3.6,3.6,67,0.00,,,0.00,VWS V13.01,2013-08-06 15:16:00,
2013-08-06 10:21:00,82.4,69.9,29.89,ESE,114,2.2,2.2,66,0.00,,,0.00,VWS V13.01,2013-08-06 15:21:00,
2013-08-06 10:26:00,82.6,69.2,29.89,NE,55,4.0,4.0,64,0.00,,,0.00,VWS V13.01,2013-08-06 15:26:00,
2013-08-06 10:31:00,82.9,69.9,29.89,ENE,64,2.7,2.7,65,0.00,,,0.00,VWS V13.01,2013-08-06 15:31:00,
2013-08-06 10:36:00,83.3,70.3,29.89,ENE,73,3.1,4.0,65,0.00,,,0.00,VWS V13.01,2013-08-06 15:36:00,
2013-08-06 10:41:00,83.3,70.3,29.89,ESE,112,0.0,0.0,65,0.00,,,0.00,VWS V13.01,2013-08-06 15:41:00,
2013-08-06 10:46:00,83.6,70.2,29.89,NNE,33,2.7,3.6,64,0.00,,,0.00,VWS V13.01,2013-08-06 15:46:00,
2013-08-06 10:51:00,84.0,70.5,29.89,ENE,66,0.0,0.0,64,0.00,,,0.00,VWS V13.01,2013-08-06 15:51:00,
2013-08-06 10:56:00,83.8,70.8,29.89,NE,34,3.1,3.1,65,0.00,,,0.00,VWS V13.01,2013-08-06 15:56:00,
2013-08-06 11:01:00,84.2,71.2,29.89,SE,124,2.7,3.1,65,0.00,,,0.00,VWS V13.01,2013-08-06 16:01:00,
2013-08-06 11:06:00,84.4,70.9,29.89,East,94,2.2,2.7,64,0.00,,,0.00,VWS V13.01,2013-08-06 16:06:00,
2013-08-06 11:11:00,84.5,71.0,29.89,NNE,20,2.7,5.4,64,0.00,,,0.00,VWS V13.01,2013-08-06 16:11:00,
2013-08-06 11:16:00,84.7,70.7,29.89,NE,34,2.7,4.0,63,0.00,,,0.00,VWS V13.01,2013-08-06 16:16:00,
2013-08-06 11:21:00,85.1,71.1,29.89,ESE,116,2.7,3.6,63,0.00,,,0.00,VWS V13.01,2013-08-06 16:21:00,
2013-08-06 11:26:00,85.4,70.5,29.89,NNE,22,3.6,4.0,61,0.00,,,0.00,VWS V13.01,2013-08-06 16:26:00,
2013-08-06 11:31:00,85.4,70.5,29.89,ENE,70,4.0,4.0,61,0.00,,,0.00,VWS V13.01,2013-08-06 16:31:00,
2013-08-06 11:36:00,85.6,70.2,29.89,ENE,64,3.1,4.0,60,0.00,,,0.00,VWS V13.01,2013-08-06 16:36:00,
2013-08-06 11:41:00,85.6,70.2,29.89,SE,143,5.4,5.4,60,0.00,,,0.00,VWS V13.01,2013-08-06 16:41:00,
2013-08-06 11:46:00,86.0,70.0,29.86,East,93,4.9,7.2,59,0.00,,,0.00,VWS V13.01,2013-08-06 16:46:00,
2013-08-06 11:51:00,86.7,71.2,29.86,East,80,5.4,5.8,60,0.00,,,0.00,VWS V13.01,2013-08-06 16:51:00,
2013-08-06 11:56:00,87.1,70.5,29.86,East,94,6.7,6.7,58,0.00,,,0.00,VWS V13.01,2013-08-06 16:56:00,
2013-08-06 12:01:00,87.1,70.5,29.89,NE,43,3.6,4.0,58,0.00,,,0.00,VWS V13.01,2013-08-06 17:01:00,
2013-08-06 12:06:00,87.2,69.6,29.89,NE,52,5.8,5.8,56,0.00,,,0.00,VWS V13.01,2013-08-06 17:06:00,
2013-08-06 12:11:00,87.8,70.7,29.89,NE,42,5.4,5.4,57,0.00,,,0.00,VWS V13.01,2013-08-06 17:11:00,
2013-08-06 12:16:00,88.1,69.4,29.89,ENE,78,2.7,4.0,54,0.00,,,0.00,VWS V13.01,2013-08-06 17:16:00,
2013-08-06 12:21:00,88.3,69.0,29.89,NE,49,3.1,4.0,53,0.00,,,0.00,VWS V13.01,2013-08-06 17:21:00,
2013-08-06 12:26:00,88.5,69.8,29.89,NE,41,3.6,4.0,54,0.00,,,0.00,VWS V13.01,2013-08-06 17:26:00,
2013-08-06 12:27:00,88.7,69.4,29.89,NNE,33,5.8,6.3,53,0.00,,,0.00,VWS V13.01,2013-08-06 17:27:00,
2013-08-06 12:32:00,88.7,69.9,29.89,NE,39,4.0,5.8,54,0.00,,,0.00,VWS V13.01,2013-08-06 17:32:00,
2013-08-06 12:37:00,88.7,70.4,29.89,ENE,74,4.0,4.5,55,0.00,,,0.00,VWS V13.01,2013-08-06 17:37:00,
2013-08-06 12:42:00,88.9,69.5,29.89,East,98,5.4,5.4,53,0.00,,,0.00,VWS V13.01,2013-08-06 17:42:00,
2013-08-06 12:47:00,89.0,70.2,29.89,ENE,57,3.1,5.4,54,0.00,,,0.00,VWS V13.01,2013-08-06 17:47:00,
2013-08-06 12:52:00,89.4,69.5,29.89,ENE,58,5.4,5.4,52,0.00,,,0.00,VWS V13.01,2013-08-06 17:52:00,
2013-08-06 12:57:00,89.0,69.1,29.89,ENE,73,4.9,6.3,52,0.00,,,0.00,VWS V13.01,2013-08-06 17:57:00,
2013-08-06 13:02:00,89.0,69.7,29.86,ESE,108,4.0,4.0,53,0.00,,,0.00,VWS V13.01,2013-08-06 18:02:00,
2013-08-06 13:07:00,89.8,69.2,29.86,NNE,29,3.1,3.1,51,0.00,,,0.00,VWS V13.01,2013-08-06 18:07:00,
2013-08-06 13:12:00,90.1,70.1,29.86,ESE,109,5.8,5.8,52,0.00,,,0.00,VWS V13.01,2013-08-06 18:12:00,
2013-08-06 13:17:00,89.8,69.8,29.86,NE,34,5.8,5.8,52,0.00,,,0.00,VWS V13.01,2013-08-06 18:17:00,
2013-08-06 13:22:00,90.1,70.7,29.86,ENE,62,3.1,3.6,53,0.00,,,0.00,VWS V13.01,2013-08-06 18:22:00,
2013-08-06 13:27:00,90.3,70.3,29.86,NE,34,3.6,3.6,52,0.00,,,0.00,VWS V13.01,2013-08-06 18:27:00,
2013-08-06 13:32:00,90.3,70.3,29.86,NE,52,4.0,5.8,52,0.00,,,0.00,VWS V13.01,2013-08-06 18:32:00,
2013-08-06 13:37:00,89.9,70.5,29.86,SSE,157,3.1,3.6,53,0.00,,,0.00,VWS V13.01,2013-08-06 18:37:00,
2013-08-06 13:42:00,89.6,69.6,29.86,SE,130,5.8,5.8,52,0.00,,,0.00,VWS V13.01,2013-08-06 18:42:00,
2013-08-06 13:47:00,89.2,70.4,29.86,ESE,119,5.4,5.4,54,0.00,,,0.00,VWS V13.01,2013-08-06 18:47:00,
2013-08-06 13:51:00,89.2,71.5,29.86,NNE,16,4.0,4.0,56,0.00,,,0.00,VWS V13.01,2013-08-06 18:51:00,
2013-08-06 13:56:00,89.6,72.3,29.86,South,170,3.6,5.4,57,0.00,,,0.00,VWS V13.01,2013-08-06 18:56:00,
2013-08-06 14:01:00,89.9,70.5,29.86,SSE,150,3.6,3.6,53,0.00,,,0.00,VWS V13.01,2013-08-06 19:01:00,
2013-08-06 14:02:00,89.9,70.5,29.86,SSE,150,3.6,3.6,53,0.00,,,0.00,VWS V13.01,2013-08-06 19:02:00,
2013-08-06 14:07:00,89.9,69.4,29.86,ESE,117,3.6,4.9,51,0.00,,,0.00,VWS V13.01,2013-08-06 19:07:00,
2013-08-06 14:12:00,90.3,70.3,29.86,South,171,3.6,6.3,52,0.00,,,0.00,VWS V13.01,2013-08-06 19:12:00,
2013-08-06 14:16:00,90.3,70.3,29.86,SE,135,8.1,8.1,52,0.00,,,0.00,VWS V13.01,2013-08-06 19:16:00,
2013-08-06 14:21:00,89.8,69.8,29.86,SE,140,8.3,8.3,52,0.00,,,0.00,VWS V13.01,2013-08-06 19:21:00,
2013-08-06 14:26:00,89.2,68.7,29.86,SSE,150,3.1,4.9,51,0.00,,,0.00,VWS V13.01,2013-08-06 19:26:00,
2013-08-06 14:31:00,89.4,69.5,29.86,SSE,150,3.1,3.1,52,0.00,,,0.00,VWS V13.01,2013-08-06 19:31:00,
2013-08-06 14:36:00,89.4,68.9,29.86,South,169,4.9,6.3,51,0.00,,,0.00,VWS V13.01,2013-08-06 19:36:00,
2013-08-06 14:41:00,89.6,69.1,29.86,ESE,116,2.2,3.1,51,0.00,,,0.00,VWS V13.01,2013-08-06 19:41:00,
2013-08-06 14:46:00,90.3,69.2,29.83,SSE,151,6.3,6.3,50,0.00,,,0.00,VWS V13.01,2013-08-06 19:46:00,
2013-08-06 14:51:00,90.7,70.1,29.83,ENE,76,2.7,3.1,51,0.00,,,0.00,VWS V13.01,2013-08-06 19:51:00,
2013-08-06 14:56:00,91.4,70.1,29.83,SSE,153,5.8,5.8,50,0.00,,,0.00,VWS V13.01,2013-08-06 19:56:00,
2013-08-06 15:01:00,91.4,70.7,29.83,East,97,2.7,2.7,51,0.00,,,0.00,VWS V13.01,2013-08-06 20:01:00,
2013-08-06 15:06:00,91.7,69.3,29.83,NNE,23,3.1,4.0,48,0.00,,,0.00,VWS V13.01,2013-08-06 20:06:00,
2013-08-06 15:11:00,91.7,69.3,29.83,ENE,74,4.0,5.4,48,0.00,,,0.00,VWS V13.01,2013-08-06 20:11:00,
2013-08-06 15:16:00,91.9,70.0,29.83,East,89,5.8,5.8,49,0.00,,,0.00,VWS V13.01,2013-08-06 20:16:00,
2013-08-06 15:21:00,91.6,69.7,29.83,ENE,64,3.1,3.6,49,0.00,,,0.00,VWS V13.01,2013-08-06 20:21:00,
2013-08-06 15:26:00,91.6,69.7,29.83,ESE,123,3.1,3.1,49,0.00,,,0.00,VWS V13.01,2013-08-06 20:26:00,
2013-08-06 15:31:00,91.7,69.9,29.83,SE,138,3.1,3.6,49,0.00,,,0.00,VWS V13.01,2013-08-06 20:31:00,
2013-08-06 15:32:00,91.7,69.9,29.83,South,175,3.6,3.6,49,0.00,,,0.00,VWS V13.01,2013-08-06 20:32:00,
2013-08-06 15:37:00,91.7,70.5,29.83,ENE,66,4.0,4.9,50,0.00,,,0.00,VWS V13.01,2013-08-06 20:37:00,
2013-08-06 15:42:00,92.1,70.2,29.83,SE,132,4.0,4.0,49,0.00,,,0.00,VWS V13.01,2013-08-06 20:42:00,
2013-08-06 15:47:00,92.3,69.8,29.83,ENE,77,3.1,3.1,48,0.00,,,0.00,VWS V13.01,2013-08-06 20:47:00,
2013-08-06 15:52:00,92.3,69.8,29.83,ENE,75,5.8,6.3,48,0.00,,,0.00,VWS V13.01,2013-08-06 20:52:00,
2013-08-06 15:57:00,92.3,70.4,29.83,ENE,73,3.1,4.9,49,0.00,,,0.00,VWS V13.01,2013-08-06 20:57:00,
2013-08-06 16:02:00,92.6,70.1,29.83,East,83,3.6,3.6,48,0.00,,,0.00,VWS V13.01,2013-08-06 21:02:00,
2013-08-06 16:07:00,92.5,69.9,29.83,NE,42,2.2,3.1,48,0.00,,,0.00,VWS V13.01,2013-08-06 21:07:00,
2013-08-06 16:11:00,92.6,70.1,29.83,East,84,4.0,4.0,48,0.00,,,0.00,VWS V13.01,2013-08-06 21:11:00,
2013-08-06 16:16:00,92.5,69.3,29.83,East,82,3.1,4.0,47,0.00,,,0.00,VWS V13.01,2013-08-06 21:16:00,
2013-08-06 16:21:00,92.1,69.6,29.83,East,94,4.5,6.3,48,0.00,,,0.00,VWS V13.01,2013-08-06 21:21:00,
2013-08-06 16:26:00,92.1,69.6,29.83,East,95,5.8,6.3,48,0.00,,,0.00,VWS V13.01,2013-08-06 21:26:00,
2013-08-06 16:31:00,91.9,68.8,29.83,ENE,57,5.8,7.6,47,0.00,,,0.00,VWS V13.01,2013-08-06 21:31:00,
2013-08-06 16:36:00,91.9,69.4,29.83,NE,49,4.0,5.8,48,0.00,,,0.00,VWS V13.01,2013-08-06 21:36:00,
2013-08-06 16:41:00,92.3,69.2,29.83,NE,43,3.6,3.6,47,0.00,,,0.00,VWS V13.01,2013-08-06 21:41:00,
2013-08-06 16:46:00,92.3,69.8,29.83,ESE,107,5.4,5.4,48,0.00,,,0.00,VWS V13.01,2013-08-06 21:46:00,
2013-08-06 16:51:00,92.1,69.6,29.83,SE,143,4.9,5.4,48,0.00,,,0.00,VWS V13.01,2013-08-06 21:51:00,
2013-08-06 16:56:00,92.3,69.8,29.83,East,101,4.9,4.9,48,0.00,,,0.00,VWS V13.01,2013-08-06 21:56:00,
2013-08-06 17:01:00,92.3,70.4,29.83,East,79,3.6,4.0,49,0.00,,,0.00,VWS V13.01,2013-08-06 22:01:00,
2013-08-06 17:06:00,92.3,69.8,29.83,ENE,64,6.7,6.7,48,0.00,,,0.00,VWS V13.01,2013-08-06 22:06:00,
2013-08-06 17:11:00,92.3,69.8,29.83,ENE,74,4.9,5.4,48,0.00,,,0.00,VWS V13.01,2013-08-06 22:11:00,
2013-08-06 17:16:00,92.1,69.6,29.83,NE,52,3.1,5.4,48,0.00,,,0.00,VWS V13.01,2013-08-06 22:16:00,
2013-08-06 17:21:00,92.3,70.4,29.83,ENE,62,2.2,2.7,49,0.00,,,0.00,VWS V13.01,2013-08-06 22:21:00,
2013-08-06 17:26:00,92.5,69.9,29.83,NE,53,3.1,3.1,48,0.00,,,0.00,VWS V13.01,2013-08-06 22:26:00,
2013-08-06 17:31:00,92.5,70.5,29.80,ESE,118,3.1,3.1,49,0.00,,,0.00,VWS V13.01,2013-08-06 22:31:00,
2013-08-06 17:36:00,92.6,70.1,29.80,ESE,123,2.2,3.1,48,0.00,,,0.00,VWS V13.01,2013-08-06 22:36:00,
2013-08-06 17:41:00,92.8,70.3,29.80,East,96,3.1,3.1,48,0.00,,,0.00,VWS V13.01,2013-08-06 22:41:00,
2013-08-06 17:46:00,92.8,70.3,29.80,East,84,2.2,2.7,48,0.00,,,0.00,VWS V13.01,2013-08-06 22:46:00,
2013-08-06 17:51:00,93.0,70.4,29.80,ESE,121,0.0,0.0,48,0.00,,,0.00,VWS V13.01,2013-08-06 22:51:00,
2013-08-06 17:56:00,93.2,70.6,29.80,ENE,68,3.6,3.6,48,0.00,,,0.00,VWS V13.01,2013-08-06 22:56:00,
2013-08-06 18:01:00,93.2,70.6,29.80,NE,56,3.1,5.4,48,0.00,,,0.00,VWS V13.01,2013-08-06 23:01:00,
2013-08-06 18:06:00,92.6,70.7,29.80,ESE,108,3.6,4.0,49,0.00,,,0.00,VWS V13.01,2013-08-06 23:06:00,
2013-08-06 18:11:00,92.3,70.4,29.80,East,87,3.1,3.6,49,0.00,,,0.00,VWS V13.01,2013-08-06 23:11:00,
2013-08-06 18:16:00,91.9,70.0,29.80,SE,126,7.2,7.2,49,0.00,,,0.00,VWS V13.01,2013-08-06 23:16:00,
2013-08-06 18:21:00,91.7,77.8,29.80,ESE,104,4.0,4.0,64,0.00,,,0.00,VWS V13.01,2013-08-06 23:21:00,
2013-08-06 18:26:00,91.6,78.6,29.80,ENE,65,4.9,4.9,66,0.00,,,0.00,VWS V13.01,2013-08-06 23:26:00,
2013-08-06 18:31:00,91.6,78.6,29.80,SE,131,3.1,5.4,66,0.00,,,0.00,VWS V13.01,2013-08-06 23:31:00,
2013-08-06 18:36:00,91.4,78.4,29.80,ESE,120,4.0,4.0,66,0.00,,,0.00,VWS V13.01,2013-08-06 23:36:00,
2013-08-06 18:41:00,91.0,78.5,29.80,ESE,121,3.6,3.6,67,0.00,,,0.00,VWS V13.01,2013-08-06 23:41:00,
2013-08-06 18:46:00,90.8,78.4,29.80,ESE,111,3.1,3.1,67,0.00,,,0.00,VWS V13.01,2013-08-06 23:46:00,
2013-08-06 18:51:00,90.7,78.7,29.80,ESE,105,3.1,3.1,68,0.00,,,0.00,VWS V13.01,2013-08-06 23:51:00,
2013-08-06 18:56:00,90.5,78.5,29.80,ESE,110,3.6,4.0,68,0.00,,,0.00,VWS V13.01,2013-08-06 23:56:00,
2013-08-06 19:01:00,90.3,78.3,29.78,East,89,2.7,3.1,68,0.00,,,0.00,VWS V13.01,2013-08-07 00:01:00,
2013-08-06 19:06:00,90.1,78.6,29.78,East,85,3.1,3.6,69,0.00,,,0.00,VWS V13.01,2013-08-07 00:06:00,
2013-08-06 19:11:00,89.9,78.4,29.78,ESE,121,4.5,4.5,69,0.00,,,0.00,VWS V13.01,2013-08-07 00:11:00,
2013-08-06 19:16:00,89.8,78.7,29.78,East,79,0.0,2.2,70,0.00,,,0.00,VWS V13.01,2013-08-07 00:16:00,
2013-08-06 19:21:00,89.6,78.5,29.78,East,93,3.1,4.0,70,0.00,,,0.00,VWS V13.01,2013-08-07 00:21:00,
2013-08-06 19:26:00,89.4,77.9,29.78,ESE,107,2.7,2.7,69,0.00,,,0.00,VWS V13.01,2013-08-07 00:26:00,
2013-08-06 19:31:00,89.4,78.3,29.78,East,101,2.2,2.7,70,0.00,,,0.00,VWS V13.01,2013-08-07 00:31:00,
2013-08-06 19:36:00,89.2,78.2,29.78,East,88,2.7,3.6,70,0.00,,,0.00,VWS V13.01,2013-08-07 00:36:00,
2013-08-06 19:41:00,88.9,77.8,29.78,ENE,76,2.7,2.7,70,0.00,,,0.00,VWS V13.01,2013-08-07 00:41:00,
2013-08-06 19:46:00,88.7,78.1,29.78,East,89,2.2,2.2,71,0.00,,,0.00,VWS V13.01,2013-08-07 00:46:00,
2013-08-06 19:51:00,88.5,77.9,29.78,ENE,69,2.2,2.2,71,0.00,,,0.00,VWS V13.01,2013-08-07 00:51:00,
2013-08-06 19:56:00,88.1,77.6,29.78,ENE,75,2.7,2.7,71,0.00,,,0.00,VWS V13.01,2013-08-07 00:56:00,
2013-08-06 20:01:00,88.0,77.4,29.78,East,94,3.1,3.6,71,0.00,,,0.00,VWS V13.01,2013-08-07 01:01:00,
2013-08-06 20:06:00,87.8,77.2,29.78,East,92,2.7,4.0,71,0.00,,,0.00,VWS V13.01,2013-08-07 01:06:00,
2013-08-06 20:11:00,87.6,77.0,29.78,East,79,3.1,3.1,71,0.00,,,0.00,VWS V13.01,2013-08-07 01:11:00,
2013-08-06 20:16:00,87.2,76.7,29.78,ENE,63,2.7,4.0,71,0.00,,,0.00,VWS V13.01,2013-08-07 01:16:00,
2013-08-06 20:21:00,87.1,76.5,29.78,East,80,0.0,2.7,71,0.00,,,0.00,VWS V13.01,2013-08-07 01:21:00,
2013-08-06 20:26:00,86.9,76.3,29.78,ENE,66,2.2,2.7,71,0.00,,,0.00,VWS V13.01,2013-08-07 01:26:00,
2013-08-06 20:31:00,86.7,76.2,29.78,East,95,4.0,4.0,71,0.00,,,0.00,VWS V13.01,2013-08-07 01:31:00,
2013-08-06 20:36:00,86.7,76.2,29.78,ESE,114,2.7,4.0,71,0.00,,,0.00,VWS V13.01,2013-08-07 01:36:00,
2013-08-06 20:41:00,86.5,76.4,29.78,East,93,2.7,2.7,72,0.00,,,0.00,VWS V13.01,2013-08-07 01:41:00,
2013-08-06 20:46:00,86.3,76.2,29.80,ENE,65,2.7,3.1,72,0.00,,,0.00,VWS V13.01,2013-08-07 01:46:00,
2013-08-06 20:51:00,86.2,76.5,29.80,East,79,4.5,4.5,73,0.00,,,0.00,VWS V13.01,2013-08-07 01:51:00,
2013-08-06 20:56:00,86.2,76.5,29.80,East,94,4.0,4.0,73,0.00,,,0.00,VWS V13.01,2013-08-07 01:56:00,
2013-08-06 21:01:00,86.2,76.9,29.80,East,82,4.0,4.9,74,0.00,,,0.00,VWS V13.01,2013-08-07 02:01:00,
2013-08-06 21:06:00,86.0,76.7,29.80,East,87,0.0,4.0,74,0.00,,,0.00,VWS V13.01,2013-08-07 02:06:00,
2013-08-06 21:11:00,85.8,76.6,29.80,ENE,70,2.7,2.7,74,0.00,,,0.00,VWS V13.01,2013-08-07 02:11:00,
2013-08-06 21:16:00,85.6,76.8,29.80,SE,132,0.0,3.1,75,0.00,,,0.00,VWS V13.01,2013-08-07 02:16:00,
2013-08-06 21:21:00,85.4,76.6,29.80,ENE,62,0.0,0.0,75,0.00,,,0.00,VWS V13.01,2013-08-07 02:21:00,
2013-08-06 21:26:00,85.3,76.4,29.80,ENE,62,0.0,0.0,75,0.00,,,0.00,VWS V13.01,2013-08-07 02:26:00,
2013-08-06 21:31:00,85.1,76.7,29.80,ENE,59,0.0,0.0,76,0.00,,,0.00,VWS V13.01,2013-08-07 02:31:00,
2013-08-06 21:36:00,85.1,76.7,29.80,ESE,119,0.0,0.0,76,0.00,,,0.00,VWS V13.01,2013-08-07 02:36:00,
2013-08-06 21:41:00,84.9,76.5,29.80,ESE,119,0.0,0.0,76,0.00,,,0.00,VWS V13.01,2013-08-07 02:41:00,
2013-08-06 21:46:00,84.7,76.3,29.80,ESE,119,0.0,0.0,76,0.00,,,0.00,VWS V13.01,2013-08-07 02:46:00,
2013-08-06 21:51:00,84.7,76.3,29.80,ESE,119,0.0,0.0,76,0.00,,,0.00,VWS V13.01,2013-08-07 02:51:00,
2013-08-06 21:56:00,84.5,76.5,29.80,ESE,119,0.0,0.0,77,0.00,,,0.00,VWS V13.01,2013-08-07 02:56:00,
2013-08-06 22:01:00,84.2,76.6,29.83,ESE,119,0.0,0.0,78,0.00,,,0.00,VWS V13.01,2013-08-07 03:01:00,
2013-08-06 22:06:00,83.6,76.8,29.83,NE,46,0.0,0.0,80,0.00,,,0.00,VWS V13.01,2013-08-07 03:06:00,
2013-08-06 22:11:00,83.1,76.7,29.83,NE,46,0.0,0.0,81,0.00,,,0.00,VWS V13.01,2013-08-07 03:11:00,
2013-08-06 22:16:00,82.9,76.9,29.83,NE,46,0.0,0.0,82,0.00,,,0.00,VWS V13.01,2013-08-07 03:16:00,
2013-08-06 22:21:00,82.4,76.3,29.83,NE,46,0.0,0.0,82,0.00,,,0.00,VWS V13.01,2013-08-07 03:21:00,
2013-08-06 22:26:00,82.2,77.2,29.83,NE,46,0.0,0.0,85,0.00,,,0.00,VWS V13.01,2013-08-07 03:26:00,
2013-08-06 22:31:00,81.8,76.9,29.83,NE,46,0.0,0.0,85,0.00,,,0.00,VWS V13.01,2013-08-07 03:31:00,
2013-08-06 22:36:00,81.5,76.9,29.83,NE,46,0.0,0.0,86,0.00,,,0.00,VWS V13.01,2013-08-07 03:36:00,
2013-08-06 22:41:00,81.1,76.9,29.83,NE,46,0.0,0.0,87,0.00,,,0.00,VWS V13.01,2013-08-07 03:41:00,
2013-08-06 22:46:00,80.9,76.7,29.83,NNW,337,0.0,0.0,87,0.00,,,0.00,VWS V13.01,2013-08-07 03:46:00,
2013-08-06 22:51:00,80.8,76.9,29.83,NNW,337,0.0,0.0,88,0.00,,,0.00,VWS V13.01,2013-08-07 03:51:00,
2013-08-06 22:56:00,80.6,77.0,29.83,NNW,337,0.0,0.0,89,0.00,,,0.00,VWS V13.01,2013-08-07 03:56:00,
2013-08-06 23:01:00,80.2,76.7,29.83,NNW,337,0.0,0.0,89,0.00,,,0.00,VWS V13.01,2013-08-07 04:01:00,
2013-08-06 23:06:00,80.2,77.4,29.83,NNW,337,0.0,0.0,91,0.00,,,0.00,VWS V13.01,2013-08-07 04:06:00,
2013-08-06 23:11:00,79.9,77.3,29.83,NNW,337,0.0,0.0,92,0.00,,,0.00,VWS V13.01,2013-08-07 04:11:00,
2013-08-06 23:16:00,79.7,76.8,29.83,NNW,337,0.0,0.0,91,0.00,,,0.00,VWS V13.01,2013-08-07 04:16:00,
2013-08-06 23:21:00,79.5,77.0,29.83,NNW,337,0.0,0.0,92,0.00,,,0.00,VWS V13.01,2013-08-07 04:21:00,
2013-08-06 23:26:00,79.3,77.4,29.83,NNW,337,0.0,0.0,94,0.00,,,0.00,VWS V13.01,2013-08-07 04:26:00,
2013-08-06 23:31:00,79.1,77.3,29.83,NNW,337,0.0,0.0,94,0.00,,,0.00,VWS V13.01,2013-08-07 04:31:00,
2013-08-06 23:36:00,79.0,76.8,29.83,NNW,341,0.0,0.0,93,0.00,,,0.00,VWS V13.01,2013-08-07 04:36:00,
2013-08-06 23:41:00,79.0,77.4,29.83,NNW,341,0.0,0.0,95,0.00,,,0.00,VWS V13.01,2013-08-07 04:41:00,
2013-08-06 23:46:00,78.6,77.4,29.83,NNW,346,0.0,0.0,96,0.00,,,0.00,VWS V13.01,2013-08-07 04:46:00,
2013-08-06 23:51:00,78.4,77.8,29.83,NNE,30,0.0,0.0,98,0.00,,,0.00,VWS V13.01,2013-08-07 04:51:00,
2013-08-06 23:56:00,78.1,78.1,29.83,NNE,30,0.0,0.0,100,0.00,,,0.00,VWS V13.01,2013-08-07 04:56:00,